Aviation Digital Data Service (ADDS)

Output produced by METARs form (0927 UTC 28 August 2015)
found at http://aviationweather.gov/adds/metars/
 
KPSM 280902Z 2809/2906 29005KT P6SM SKC 
     FM281900 16008KT P6SM SKC 
     FM290000 VRB03KT P6SM SKC